Time;durP1;ratioP1;P1;durP2;ratioP2;P2;SDS_P1;SDS_P2;PMS_P1;PMS_P2;Temp;Humidity;BMP_temperature;BMP_pressure;BME280_temperature;BME280_humidity;BME280_pressure;Samples;Min_cycle;Max_cycle;Signal;HPM_P1;HPM_P2
2022/12/09 00:01:57;;;;;;;10.43;6.22;;;-3.80;99.90;;;;;;6095805;23;20132;-87
2022/12/09 00:04:23;;;;;;;9.23;5.45;;;-3.60;99.90;;;;;;6147656;23;20031;-87
2022/12/09 00:06:49;;;;;;;10.07;6.00;;;-2.00;99.90;;;;;;6120831;23;20346;-87
2022/12/09 00:09:15;;;;;;;12.30;7.07;;;;;;;;;;6097138;23;20017;-89
2022/12/09 00:11:42;;;;;;;11.70;6.70;;;-2.40;99.90;;;;;;6145268;23;20863;-87
2022/12/09 00:14:10;;;;;;;10.30;5.78;;;-2.40;99.90;;;;;;6121449;23;20026;-88
2022/12/09 00:16:35;;;;;;;12.63;7.15;;;-2.20;99.90;;;;;;6122058;23;20021;-89
2022/12/09 00:19:03;;;;;;;12.77;6.22;;;-2.40;99.90;;;;;;6072124;23;20520;-89
2022/12/09 00:21:31;;;;;;;11.20;6.40;;;-2.50;99.90;;;;;;6122809;23;20018;-86
2022/12/09 00:23:59;;;;;;;13.02;6.80;;;-2.50;99.90;;;;;;6146053;23;20036;-87
2022/12/09 00:26:26;;;;;;;10.50;6.50;;;-2.50;99.90;;;;;;6145831;23;20018;-88
2022/12/09 00:28:53;;;;;;;11.02;6.20;;;-2.20;99.90;;;;;;6169555;23;20025;-84
2022/12/09 00:31:24;;;;;;;9.82;6.28;;;-2.50;99.90;;;;;;6121027;23;20025;-85
2022/12/09 00:33:59;;;;;;;10.40;5.80;;;-2.50;99.90;;;;;;6145695;23;20194;-85
2022/12/09 00:36:26;;;;;;;11.43;6.25;;;-2.60;99.90;;;;;;6145172;23;20021;-87
2022/12/09 00:38:53;;;;;;;10.27;5.82;;;-0.70;99.90;;;;;;6096288;23;20072;-86
2022/12/09 00:41:19;;;;;;;11.05;6.40;;;-3.70;99.90;;;;;;6097354;23;20454;-89
2022/12/09 00:43:45;;;;;;;9.85;6.00;;;-1.90;99.90;;;;;;6146626;23;20017;-88
2022/12/09 00:46:12;;;;;;;10.38;6.07;;;-0.90;99.90;;;;;;6095963;23;20107;-88
2022/12/09 00:48:39;;;;;;;10.40;6.28;;;-2.60;99.90;;;;;;6121245;23;20030;-89
2022/12/09 00:51:07;;;;;;;10.05;6.00;;;-2.70;99.90;;;;;;6119014;23;20022;-87
2022/12/09 00:53:33;;;;;;;10.27;6.15;;;-1.70;99.90;;;;;;6145316;23;20029;-88
2022/12/09 00:55:59;;;;;;;10.55;6.13;;;-1.20;99.90;;;;;;6096840;23;20021;-89
2022/12/09 00:58:25;;;;;;;9.15;5.60;;;-2.20;99.90;;;;;;6171587;23;20024;-88
2022/12/09 01:00:54;;;;;;;9.95;5.63;;;-2.70;99.90;;;;;;6073792;23;20493;-89
2022/12/09 01:03:20;;;;;;;12.18;6.93;;;-2.90;99.90;;;;;;6122714;23;20076;-90
2022/12/09 01:05:46;;;;;;;10.98;5.85;;;-2.80;99.90;;;;;;6098263;23;20429;-88
2022/12/09 01:08:12;;;;;;;12.55;6.70;;;-1.40;99.90;;;;;;6124306;23;20029;-85
2022/12/09 01:10:40;;;;;;;12.10;6.40;;;-0.50;99.90;;;;;;6124118;23;20081;-88
2022/12/09 01:13:06;;;;;;;10.82;7.13;;;-2.80;99.90;;;;;;6100382;23;20018;-87
2022/12/09 01:15:34;;;;;;;12.35;6.85;;;-2.50;99.90;;;;;;6136700;23;20029;-86
2022/12/09 01:18:00;;;;;;;12.68;6.97;;;-2.80;99.90;;;;;;6120802;23;20065;-89
2022/12/09 01:20:26;;;;;;;11.77;6.80;;;-1.50;99.90;;;;;;6137587;23;20021;-87
2022/12/09 01:22:52;;;;;;;11.65;7.07;;;-2.80;99.90;;;;;;6127622;23;20356;-86
2022/12/09 01:25:17;;;;;;;10.27;6.60;;;-2.80;99.90;;;;;;6086306;23;20024;-86
2022/12/09 01:27:43;;;;;;;12.25;6.75;;;-2.80;99.90;;;;;;6122377;23;20022;-85
2022/12/09 01:30:11;;;;;;;11.65;5.95;;;-2.80;99.90;;;;;;6147377;23;20021;-84
2022/12/09 01:32:37;;;;;;;14.02;7.00;;;-2.70;99.90;;;;;;6155175;23;20022;-87
2022/12/09 01:35:03;;;;;;;10.35;6.68;;;-0.50;99.90;;;;;;6095301;23;20017;-85
2022/12/09 01:37:31;;;;;;;11.35;6.45;;;-2.70;99.90;;;;;;6145866;23;20333;-88
2022/12/09 01:39:57;;;;;;;10.93;6.38;;;-2.80;99.90;;;;;;6119803;23;20161;-85
2022/12/09 01:42:25;;;;;;;12.30;6.68;;;-1.30;99.90;;;;;;6145123;23;20093;-86
2022/12/09 01:45:19;;;;;;;12.40;6.57;;;-0.40;99.90;;;;;;6121495;23;20021;-88
2022/12/09 01:47:51;;;;;;;10.57;6.95;;;-2.70;99.90;;;;;;6121740;23;20021;-88
2022/12/09 01:50:18;;;;;;;11.52;7.43;;;-2.70;99.90;;;;;;6148930;23;20020;-89
2022/12/09 01:52:45;;;;;;;12.15;6.60;;;-0.40;99.90;;;;;;6150259;23;20021;-86
2022/12/09 01:55:12;;;;;;;13.68;7.82;;;-2.00;99.90;;;;;;6149529;23;20025;-87
2022/12/09 01:57:38;;;;;;;13.73;7.13;;;-2.60;99.90;;;;;;6125603;23;20786;-84
2022/12/09 02:00:05;;;;;;;12.65;7.47;;;-2.60;99.90;;;;;;6125601;23;20017;-86
2022/12/09 02:02:34;;;;;;;12.80;7.78;;;-2.60;99.90;;;;;;6149779;23;20122;-87
2022/12/09 02:05:01;;;;;;;11.80;7.13;;;-2.50;99.90;;;;;;6151278;23;20020;-85
2022/12/09 02:07:27;;;;;;;12.73;7.65;;;-2.60;99.90;;;;;;6099182;23;20472;-87
2022/12/09 02:09:53;;;;;;;11.57;7.45;;;-0.60;99.90;;;;;;6150689;23;20575;-88
2022/12/09 02:12:24;;;;;;;12.13;7.80;;;-2.50;99.90;;;;;;6124261;23;20021;-87
2022/12/09 02:14:58;;;;;;;13.27;8.57;;;-2.50;99.90;;;;;;6150771;23;20059;-86
2022/12/09 02:17:58;;;;;;;13.43;8.27;;;-2.30;99.90;;;;;;6149234;23;20025;-88
2022/12/09 02:20:51;;;;;;;14.20;7.72;;;-2.30;99.90;;;;;;6149620;23;20071;-87
2022/12/09 02:23:32;;;;;;;16.42;9.10;;;-1.40;99.90;;;;;;6149713;23;20027;-85
2022/12/09 02:26:21;;;;;;;14.00;8.00;;;-2.20;99.90;;;;;;6149302;23;20696;-86
2022/12/09 02:29:24;;;;;;;12.55;7.55;;;-0.50;99.90;;;;;;6148456;23;20025;-86
2022/12/09 02:32:21;;;;;;;14.63;8.13;;;-2.20;99.90;;;;;;6174275;23;20036;-87
2022/12/09 02:34:54;;;;;;;;;;;-2.20;99.90;;;;;;6151048;23;20092;-88
2022/12/09 02:37:32;;;;;;;14.38;7.80;;;-2.10;99.90;;;;;;6148533;23;19983;-87
2022/12/09 02:40:25;;;;;;;17.45;8.70;;;-2.10;99.90;;;;;;6149741;23;20059;-89
2022/12/09 02:42:53;;;;;;;11.05;7.35;;;-2.10;99.90;;;;;;6150199;23;20021;-86
2022/12/09 02:45:22;;;;;;;11.52;7.07;;;-2.10;99.90;;;;;;6126693;23;20017;-87
2022/12/09 02:47:51;;;;;;;13.10;7.82;;;-2.10;99.90;;;;;;6150224;23;20019;-84
2022/12/09 02:50:21;;;;;;;13.13;8.85;;;-2.10;99.90;;;;;;6125729;23;20056;-86
2022/12/09 02:52:50;;;;;;;15.43;8.77;;;-2.10;99.90;;;;;;6149583;23;20028;-90
2022/12/09 02:55:18;;;;;;;16.40;8.82;;;-2.10;99.90;;;;;;6149232;23;20087;-86
2022/12/09 02:57:44;;;;;;;12.52;8.15;;;-0.80;99.90;;;;;;6150328;23;20024;-89
2022/12/09 03:00:13;;;;;;;14.07;7.80;;;-0.50;99.90;;;;;;6100742;23;20136;-88
2022/12/09 03:02:44;;;;;;;14.25;8.20;;;-2.10;99.90;;;;;;6149837;23;20025;-88
2022/12/09 03:05:26;;;;;;;11.75;8.02;;;0.00;99.90;;;;;;6149906;23;20021;-86
2022/12/09 03:08:26;;;;;;;17.58;8.45;;;-2.10;99.90;;;;;;6149188;23;20033;-88
2022/12/09 03:11:06;;;;;;;12.15;7.95;;;-2.00;99.90;;;;;;6149811;23;20029;-88
2022/12/09 03:13:43;;;;;;;14.30;8.57;;;-2.00;99.90;;;;;;6150092;23;20115;-86
2022/12/09 03:16:23;;;;;;;12.25;8.00;;;-2.00;99.90;;;;;;6150709;23;20091;-87
2022/12/09 03:18:59;;;;;;;13.23;8.15;;;-2.00;99.90;;;;;;6156380;23;20021;-84
2022/12/09 03:21:27;;;;;;;12.38;7.63;;;-2.00;99.90;;;;;;6169218;23;20076;-85
2022/12/09 03:23:55;;;;;;;13.85;8.68;;;-2.00;99.90;;;;;;6177654;23;20025;-87
2022/12/09 03:26:25;;;;;;;15.07;9.10;;;-1.20;99.90;;;;;;6118971;23;20021;-86
2022/12/09 03:28:52;;;;;;;13.90;8.52;;;-1.90;99.90;;;;;;6157813;23;20017;-87
2022/12/09 03:31:20;;;;;;;15.70;8.85;;;-1.90;99.90;;;;;;6112102;23;20025;-85
2022/12/09 03:33:49;;;;;;;15.30;9.73;;;0.40;99.90;;;;;;6168586;23;20087;-84
2022/12/09 03:36:17;;;;;;;16.00;9.40;;;-0.30;99.90;;;;;;6175100;23;20575;-83
2022/12/09 03:38:45;;;;;;;16.73;9.77;;;-2.20;99.90;;;;;;6129515;23;20013;-87
2022/12/09 03:41:17;;;;;;;17.05;9.23;;;-0.80;99.90;;;;;;6148286;23;20056;-84
2022/12/09 03:43:51;;;;;;;14.60;8.95;;;-1.90;99.90;;;;;;6149859;23;20017;-89
2022/12/09 03:46:19;;;;;;;15.93;9.48;;;0.50;99.90;;;;;;6150451;23;20027;-86
2022/12/09 03:48:45;;;;;;;18.05;9.45;;;-0.90;99.90;;;;;;6150646;23;20128;-87
2022/12/09 03:51:24;;;;;;;17.25;9.60;;;-0.40;99.90;;;;;;6149430;23;20044;-85
2022/12/09 03:54:20;;;;;;;15.98;9.48;;;0.50;99.90;;;;;;6151374;23;20175;-88
2022/12/09 03:56:50;;;;;;;16.90;9.35;;;-1.90;99.90;;;;;;6138159;23;20024;-88
2022/12/09 03:59:17;;;;;;;18.30;9.68;;;-1.90;99.90;;;;;;6149396;23;20017;-87
2022/12/09 04:01:44;;;;;;;15.90;9.95;;;-1.50;99.90;;;;;;6150865;23;20028;-86
2022/12/09 04:04:11;;;;;;;17.63;9.95;;;-0.30;99.90;;;;;;6150512;23;20459;-87
2022/12/09 04:06:37;;;;;;;16.17;9.02;;;-1.10;99.90;;;;;;6101139;23;20033;-86
2022/12/09 04:09:04;;;;;;;19.85;10.60;;;-3.80;99.90;;;;;;6101662;23;20500;-85
2022/12/09 04:11:31;;;;;;;17.30;9.35;;;-1.90;99.90;;;;;;6148797;23;20096;-87
2022/12/09 04:13:57;;;;;;;18.75;9.95;;;-1.80;99.90;;;;;;6101997;23;20146;-89
2022/12/09 04:16:23;;;;;;;17.48;9.93;;;-1.90;99.90;;;;;;6101146;23;20092;-86
2022/12/09 04:18:49;;;;;;;28.05;10.55;;;-0.80;99.90;;;;;;6101414;23;20517;-87
2022/12/09 04:21:14;;;;;;;20.27;10.10;;;-1.60;99.90;;;;;;6101270;23;20027;-83
2022/12/09 04:23:41;;;;;;;19.25;10.93;;;-0.60;99.90;;;;;;6101775;23;20025;-87
2022/12/09 04:26:07;;;;;;;19.67;10.65;;;0.10;99.90;;;;;;6101650;23;20025;-85
2022/12/09 04:28:33;;;;;;;19.77;10.27;;;-1.70;99.90;;;;;;6125188;23;20445;-86
2022/12/09 04:30:59;;;;;;;17.75;10.80;;;;;;;;;;6125714;23;20442;-87
2022/12/09 04:33:26;;;;;;;19.60;10.50;;;-1.80;99.90;;;;;;6149717;23;20024;-87
2022/12/09 04:35:53;;;;;;;17.88;10.25;;;-1.70;99.90;;;;;;6077867;23;20077;-88
2022/12/09 04:38:19;;;;;;;18.30;10.05;;;-1.90;99.90;;;;;;6125111;23;20017;-84
2022/12/09 04:40:44;;;;;;;18.27;10.35;;;0.10;99.90;;;;;;6125682;23;20179;-86
2022/12/09 04:43:10;;;;;;;19.08;10.70;;;-1.90;99.90;;;;;;6100857;23;20088;-85
2022/12/09 04:45:36;;;;;;;18.08;9.63;;;-2.30;99.90;;;;;;6150187;23;20017;-87
2022/12/09 04:48:02;;;;;;;19.10;10.45;;;0.10;99.90;;;;;;6125465;23;20020;-86
2022/12/09 04:50:28;;;;;;;20.92;10.13;;;-1.90;99.90;;;;;;6076196;23;20096;-86
2022/12/09 04:52:53;;;;;;;22.52;12.10;;;-0.10;99.90;;;;;;6149408;23;20020;-86
2022/12/09 04:55:19;;;;;;;21.23;10.77;;;-1.20;99.90;;;;;;6100583;23;20098;-85
2022/12/09 04:57:45;;;;;;;22.48;10.38;;;0.70;99.90;;;;;;6124934;23;20136;-86
2022/12/09 05:00:11;;;;;;;20.00;10.27;;;-1.80;99.90;;;;;;6077279;23;20071;-87
2022/12/09 05:02:37;;;;;;;18.98;10.30;;;-1.90;99.90;;;;;;6100429;23;20464;-87
2022/12/09 05:05:03;;;;;;;20.58;10.18;;;0.40;99.90;;;;;;6100754;23;20027;-85
2022/12/09 05:07:32;;;;;;;21.45;10.10;;;-1.90;99.90;;;;;;6125086;23;20028;-88
2022/12/09 05:09:58;;;;;;;23.67;11.70;;;0.10;99.90;;;;;;6125282;23;20017;-84
2022/12/09 05:12:24;;;;;;;21.70;10.48;;;;;;;;;;6124538;23;20032;-84
2022/12/09 05:14:50;;;;;;;24.10;11.30;;;-1.80;99.90;;;;;;6151043;23;20049;-87
2022/12/09 05:17:16;;;;;;;19.60;10.98;;;-1.80;99.90;;;;;;6126356;23;20052;-86
2022/12/09 05:19:42;;;;;;;20.63;10.80;;;0.30;99.90;;;;;;6126035;23;20079;-88
2022/12/09 05:22:07;;;;;;;23.17;11.05;;;0.50;99.90;;;;;;6101781;23;20086;-87
2022/12/09 05:24:33;;;;;;;19.55;10.18;;;;;;;;;;6105851;23;20017;-88
2022/12/09 05:26:59;;;;;;;21.73;9.93;;;-1.60;99.90;;;;;;6158836;23;20017;-86
2022/12/09 05:29:25;;;;;;;21.00;10.40;;;0.90;99.90;;;;;;6120215;23;20028;-85
2022/12/09 05:31:51;;;;;;;23.33;10.73;;;0.50;99.90;;;;;;6176135;23;20072;-84
2022/12/09 05:34:17;;;;;;;21.50;10.77;;;;;;;;;;6122936;23;20028;-85
2022/12/09 05:36:43;;;;;;;20.30;10.18;;;-1.60;99.90;;;;;;6159791;23;20021;-86
2022/12/09 05:39:09;;;;;;;23.35;11.25;;;0.40;99.90;;;;;;6141127;23;20017;-86
2022/12/09 05:41:34;;;;;;;21.45;10.70;;;0.60;99.90;;;;;;6103589;23;20020;-86
2022/12/09 05:44:01;;;;;;;20.75;10.32;;;0.50;99.90;;;;;;6116527;23;20140;-85
2022/12/09 05:46:26;;;;;;;25.35;11.38;;;1.40;99.90;;;;;;6154238;23;20028;-84
2022/12/09 05:48:52;;;;;;;26.77;11.43;;;-1.10;99.90;;;;;;6125006;23;20020;-85
2022/12/09 05:51:27;;;;;;;23.58;10.73;;;1.30;99.90;;;;;;6150419;23;20025;-85
2022/12/09 05:53:53;;;;;;;26.33;12.18;;;0.10;99.90;;;;;;6149413;23;20021;-85
2022/12/09 05:56:21;;;;;;;25.77;11.85;;;0.00;99.90;;;;;;6125478;23;20028;-85
2022/12/09 05:58:47;;;;;;;23.23;11.57;;;-2.90;99.90;;;;;;6125155;23;20017;-88
2022/12/09 06:01:13;;;;;;;24.98;11.13;;;-0.80;99.90;;;;;;6125165;23;20056;-89
2022/12/09 06:03:39;;;;;;;23.38;11.55;;;0.10;99.90;;;;;;6150046;23;20100;-88
2022/12/09 06:06:11;;;;;;;28.98;12.48;;;0.00;99.90;;;;;;6099295;23;20091;-88
2022/12/09 06:08:38;;;;;;;24.08;11.48;;;-1.20;99.90;;;;;;6150243;23;20357;-85
2022/12/09 06:11:07;;;;;;;21.45;10.90;;;1.40;99.90;;;;;;6125872;23;20017;-89
2022/12/09 06:13:33;;;;;;;23.73;10.90;;;-0.70;99.90;;;;;;6127091;23;20724;-87
2022/12/09 06:16:04;;;;;;;20.77;10.00;;;-0.50;99.90;;;;;;6102994;23;20032;-87
2022/12/09 06:18:29;;;;;;;22.75;10.35;;;-0.60;99.90;;;;;;6127723;23;20052;-86
2022/12/09 06:20:57;;;;;;;21.17;10.25;;;0.80;99.90;;;;;;6126220;23;20021;-85
2022/12/09 06:23:23;;;;;;;20.73;10.32;;;1.40;99.90;;;;;;6103008;23;20113;-88
2022/12/09 06:25:49;;;;;;;20.20;10.95;;;-0.70;99.90;;;;;;6150961;23;20021;-90
2022/12/09 06:28:14;;;;;;;20.02;10.88;;;-2.90;99.90;;;;;;6125595;23;20104;-87
2022/12/09 06:30:40;;;;;;;22.27;10.88;;;1.90;99.90;;;;;;6125699;23;20051;-87
2022/12/09 06:33:06;;;;;;;23.40;10.15;;;1.40;99.90;;;;;;6125396;23;20500;-89
2022/12/09 06:35:32;;;;;;;19.85;10.18;;;-0.30;99.90;;;;;;6101593;23;20021;-87
2022/12/09 06:37:58;;;;;;;24.20;11.48;;;0.00;99.90;;;;;;6127936;23;20025;-88
2022/12/09 06:40:24;;;;;;;25.25;10.55;;;-0.60;99.90;;;;;;6126236;23;20028;-85
2022/12/09 06:42:50;;;;;;;20.20;10.55;;;-0.70;99.90;;;;;;6148865;23;20332;-83
2022/12/09 06:45:17;;;;;;;18.15;9.25;;;-0.50;99.90;;;;;;6124573;23;20071;-87
2022/12/09 06:47:43;;;;;;;20.30;10.35;;;1.40;99.90;;;;;;6125406;23;20466;-89
2022/12/09 06:50:09;;;;;;;21.50;10.07;;;-0.10;99.90;;;;;;6152457;23;20100;-88
2022/12/09 06:52:36;;;;;;;21.05;10.05;;;-0.40;99.90;;;;;;6157077;23;20167;-89
2022/12/09 06:55:06;;;;;;;18.65;9.85;;;-0.40;99.90;;;;;;6131830;23;20021;-89
2022/12/09 06:57:32;;;;;;;17.63;9.15;;;-0.70;99.90;;;;;;6155780;23;20108;-88
2022/12/09 06:59:58;;;;;;;17.40;8.93;;;-0.30;99.90;;;;;;6160890;23;20028;-89
2022/12/09 07:02:24;;;;;;;19.40;9.88;;;0.90;99.90;;;;;;6137227;23;20024;-87
2022/12/09 07:04:54;;;;;;;19.77;9.40;;;-2.00;99.90;;;;;;6112954;23;20021;-91
2022/12/09 07:07:21;;;;;;;18.95;9.10;;;-0.30;99.90;;;;;;6174587;23;20051;-84
2022/12/09 07:09:47;;;;;;;19.50;9.52;;;-1.10;99.90;;;;;;6179214;23;20012;-83
2022/12/09 07:12:12;;;;;;;19.35;9.25;;;1.40;99.90;;;;;;6151738;23;20101;-83
2022/12/09 07:14:38;;;;;;;18.17;8.75;;;1.60;99.90;;;;;;6128245;23;20009;-84
2022/12/09 07:17:04;;;;;;;19.20;8.95;;;-0.20;99.90;;;;;;6117407;23;20013;-87
2022/12/09 07:19:30;;;;;;;21.92;8.90;;;-0.10;99.90;;;;;;6109558;23;20020;-87
2022/12/09 07:21:56;;;;;;;16.65;8.75;;;;;;;;;;6152481;23;20024;-86
2022/12/09 07:24:23;;;;;;;18.58;8.23;;;0.00;99.90;;;;;;6153664;23;20080;-86
2022/12/09 07:26:49;;;;;;;17.00;8.50;;;0.00;99.90;;;;;;6106150;23;20088;-85
2022/12/09 07:29:15;;;;;;;18.95;9.80;;;2.30;99.90;;;;;;6165393;23;20017;-87
2022/12/09 07:31:41;;;;;;;20.52;9.70;;;2.00;99.90;;;;;;6089931;23;20021;-87
2022/12/09 07:34:08;;;;;;;18.60;9.38;;;0.00;99.90;;;;;;6108047;23;20181;-85
2022/12/09 07:36:35;;;;;;;19.73;9.00;;;1.90;99.90;;;;;;6159628;23;20044;-85
2022/12/09 07:39:04;;;;;;;18.20;9.23;;;0.40;99.90;;;;;;6170851;23;20045;-86
2022/12/09 07:41:29;;;;;;;19.35;9.85;;;2.00;99.90;;;;;;6165293;23;20354;-84
2022/12/09 07:43:55;;;;;;;16.48;8.60;;;0.00;99.90;;;;;;6164735;23;20052;-82
2022/12/09 07:46:22;;;;;;;18.45;8.55;;;0.10;99.90;;;;;;6184329;23;20029;-83
2022/12/09 07:48:48;;;;;;;19.90;9.50;;;0.00;99.90;;;;;;6162005;23;20017;-86
2022/12/09 07:51:14;;;;;;;18.67;9.75;;;0.20;99.90;;;;;;6079022;23;20025;-86
2022/12/09 07:53:41;;;;;;;21.27;9.88;;;1.60;99.90;;;;;;6149803;23;20028;-89
2022/12/09 07:56:10;;;;;;;20.20;9.90;;;-0.10;99.90;;;;;;6124434;23;20104;-87
2022/12/09 07:58:37;;;;;;;17.60;9.00;;;1.90;99.90;;;;;;6148140;23;20063;-88
2022/12/09 08:01:11;;;;;;;17.85;9.00;;;-0.20;99.90;;;;;;6123319;23;20075;-86
2022/12/09 08:03:39;;;;;;;19.70;9.90;;;1.70;99.90;;;;;;6147427;23;20023;-84
2022/12/09 08:06:05;;;;;;;16.00;8.77;;;1.80;99.90;;;;;;6151724;23;20025;-87
2022/12/09 08:08:33;;;;;;;17.00;9.00;;;-0.30;99.90;;;;;;6150800;23;20083;-89
2022/12/09 08:11:13;;;;;;;17.58;8.93;;;-0.40;99.90;;;;;;6152609;23;20075;-88
2022/12/09 08:13:45;;;;;;;15.90;8.88;;;0.30;99.90;;;;;;6153019;23;20021;-89
2022/12/09 08:16:13;;;;;;;14.05;7.45;;;1.80;99.90;;;;;;6154029;23;20124;-86
2022/12/09 08:18:41;;;;;;;15.35;7.40;;;1.10;99.90;;;;;;6152046;23;20020;-88
2022/12/09 08:21:15;;;;;;;16.00;8.38;;;0.20;99.90;;;;;;6150071;23;20056;-86
2022/12/09 08:23:41;;;;;;;16.95;8.82;;;;;;;;;;6149628;23;20074;-86
2022/12/09 08:26:09;;;;;;;16.40;8.45;;;-0.50;99.90;;;;;;6149206;23;20024;-86
2022/12/09 08:28:35;;;;;;;20.63;8.80;;;-0.30;99.90;;;;;;6149645;23;20024;-86
2022/12/09 08:31:09;;;;;;;18.60;8.65;;;1.80;99.90;;;;;;6150275;23;20071;-85
2022/12/09 08:33:35;;;;;;;22.77;9.75;;;-0.20;99.90;;;;;;6150353;23;20098;-84
2022/12/09 08:36:03;;;;;;;25.08;11.20;;;0.50;99.90;;;;;;6149949;23;20020;-85
2022/12/09 08:38:30;;;;;;;25.38;11.43;;;2.80;99.90;;;;;;6149764;23;20083;-84
2022/12/09 08:40:57;;;;;;;21.90;10.90;;;2.50;99.90;;;;;;6100111;23;20017;-85
2022/12/09 08:43:23;;;;;;;24.58;12.07;;;2.90;99.90;;;;;;6125680;23;20020;-83
2022/12/09 08:45:49;;;;;;;25.30;12.80;;;;;;;;;;6101256;23;20396;-79
2022/12/09 08:48:14;;;;;;;23.63;11.35;;;2.90;99.90;;;;;;6148780;23;20028;-80
2022/12/09 08:50:40;;;;;;;23.10;11.70;;;5.20;99.90;;;;;;6149177;23;20079;-84
2022/12/09 08:53:06;;;;;;;19.27;10.25;;;3.20;99.90;;;;;;6098464;23;20013;-85
2022/12/09 08:55:33;;;;;;;20.00;10.95;;;3.40;99.90;;;;;;6101040;23;20082;-87
2022/12/09 08:58:02;;;;;;;18.83;10.02;;;;;;;;;;6126404;23;20036;-89
2022/12/09 09:00:28;;;;;;;19.15;9.40;;;2.40;99.90;;;;;;6150137;23;20079;-86
2022/12/09 09:02:57;;;;;;;15.73;9.25;;;2.20;99.90;;;;;;6124524;23;20017;-87
2022/12/09 09:05:23;;;;;;;15.55;8.05;;;2.00;99.90;;;;;;6124636;23;20021;-84
2022/12/09 09:07:48;;;;;;;19.73;9.63;;;4.30;99.90;;;;;;6124321;23;20546;-84
2022/12/09 09:10:19;;;;;;;18.92;9.90;;;1.40;99.90;;;;;;6101470;23;20021;-92
2022/12/09 09:12:45;;;;;;;17.60;8.90;;;1.90;99.90;;;;;;6106479;23;20017;-88
2022/12/09 09:17:57;;;;;;;;;;;3.20;99.90;;;;;;6155759;23;20017;-86
2022/12/09 09:20:26;;;;;;;20.35;9.82;;;2.60;99.90;;;;;;6107406;23;19920;-84
2022/12/09 09:22:51;;;;;;;19.52;10.27;;;1.60;99.90;;;;;;6131834;23;20063;-86
2022/12/09 09:25:27;;;;;;;25.08;11.43;;;1.80;99.90;;;;;;6131227;23;20029;-88
2022/12/09 09:28:01;;;;;;;26.25;11.13;;;4.00;99.90;;;;;;6091334;23;20024;-83
2022/12/09 09:30:33;;;;;;;23.58;11.65;;;2.30;99.90;;;;;;6134632;23;20016;-89
2022/12/09 09:32:59;;;;;;;22.63;11.20;;;2.50;99.90;;;;;;6147886;23;20063;-88
2022/12/09 09:35:24;;;;;;;24.27;10.73;;;4.40;99.90;;;;;;6145467;23;20437;-87
2022/12/09 09:37:53;;;;;;;26.83;12.45;;;2.80;99.90;;;;;;6140992;23;20351;-88
2022/12/09 09:40:21;;;;;;;25.27;12.43;;;2.60;99.90;;;;;;6149811;23;20044;-90
2022/12/09 09:42:49;;;;;;;27.08;12.80;;;2.60;99.90;;;;;;6148818;23;20021;-87
2022/12/09 09:45:18;;;;;;;26.15;12.13;;;2.10;99.90;;;;;;6175052;23;20074;-88
2022/12/09 09:48:03;;;;;;;26.45;12.32;;;2.90;99.90;;;;;;6166563;23;20024;-87
2022/12/09 09:51:00;;;;;;;24.38;11.93;;;4.30;99.90;;;;;;6176341;23;20009;-89
2022/12/09 09:53:32;;;;;;;26.63;12.48;;;3.10;99.90;;;;;;6141032;23;20017;-88
2022/12/09 09:55:59;;;;;;;26.83;13.13;;;3.10;99.90;;;;;;6131447;23;20064;-88
2022/12/09 09:58:30;;;;;;;26.35;12.90;;;3.70;99.90;;;;;;6156594;23;20052;-88
2022/12/09 10:01:03;;;;;;;27.30;13.48;;;3.60;99.90;;;;;;6156331;23;20411;-87
2022/12/09 10:03:51;;;;;;;28.80;13.38;;;4.70;99.90;;;;;;6157898;23;20103;-87
2022/12/09 10:06:51;;;;;;;25.83;13.27;;;5.50;99.90;;;;;;6156623;23;20023;-88
2022/12/09 10:09:49;;;;;;;24.13;11.68;;;5.90;99.90;;;;;;6157077;23;20062;-88
2022/12/09 10:12:44;;;;;;;25.50;11.98;;;5.30;99.90;;;;;;6157641;23;20021;-87
2022/12/09 10:15:29;;;;;;;23.17;12.13;;;5.20;99.90;;;;;;6077215;23;20028;-88
2022/12/09 10:18:15;;;;;;;22.60;12.20;;;4.90;99.90;;;;;;6129217;23;20020;-89
2022/12/09 10:20:41;;;;;;;23.27;11.52;;;5.10;99.90;;;;;;6130790;23;20437;-89
2022/12/09 10:23:17;;;;;;;23.33;11.73;;;5.80;99.90;;;;;;6105435;23;20021;-87
2022/12/09 10:26:00;;;;;;;22.45;11.45;;;7.30;99.90;;;;;;6131001;23;20016;-87
2022/12/09 10:28:35;;;;;;;20.65;11.32;;;7.60;99.90;;;;;;6107819;23;20084;-88
2022/12/09 10:31:08;;;;;;;25.13;13.95;;;8.00;99.90;;;;;;6157319;23;20052;-91
2022/12/09 10:33:38;;;;;;;21.20;11.95;;;8.10;99.90;;;;;;6106895;23;20057;-84
2022/12/09 10:36:06;;;;;;;21.13;11.57;;;7.50;99.90;;;;;;6127547;23;20028;-84
2022/12/09 10:38:36;;;;;;;20.20;11.85;;;7.70;99.90;;;;;;6127543;23;20017;-85
2022/12/09 10:44:22;;;;;;;20.35;11.77;;;8.90;99.90;;;;;;6154018;23;20021;-84
2022/12/09 10:46:57;;;;;;;17.67;10.52;;;8.60;99.90;;;;;;6128535;23;20120;-91
2022/12/09 10:49:28;;;;;;;18.50;11.07;;;8.00;99.90;;;;;;6130883;23;20016;-90
2022/12/09 10:51:55;;;;;;;17.98;10.60;;;7.30;99.90;;;;;;6128577;23;20025;-89
2022/12/09 10:54:36;;;;;;;18.27;10.95;;;6.80;99.90;;;;;;6133087;23;20071;-86
2022/12/09 10:57:14;;;;;;;19.15;10.65;;;8.00;99.90;;;;;;6132102;23;20021;-87
2022/12/09 11:00:30;;;;;;;18.02;9.82;;;7.60;99.90;;;;;;6157011;23;20017;-91
2022/12/09 11:03:43;;;;;;;18.85;10.90;;;6.60;99.90;;;;;;6150932;23;20021;-91
2022/12/09 11:06:54;;;;;;;17.15;10.02;;;5.30;99.90;;;;;;6089085;23;20032;-92
2022/12/09 11:13:17;;;;;;;20.13;10.85;;;4.60;99.90;;;;;;6150096;23;20021;-90
2022/12/09 11:15:52;;;;;;;17.55;10.02;;;4.50;99.90;;;;;;6133487;23;20023;-91
2022/12/09 11:18:46;;;;;;;17.52;9.30;;;4.60;99.90;;;;;;6134694;23;20345;-88
2022/12/09 11:22:00;;;;;;;;;;;;;;;;;;;;;
2022/12/09 11:36:34;;;;;;;;;;;;;;;;;;;;;
2022/12/09 11:39:47;;;;;;;18.92;10.93;;;4.60;99.90;;;;;;6017816;23;20054;-88
2022/12/09 11:49:40;;;;;;;;;;;;;;;;;;;;;
2022/12/09 11:52:23;;;;;;;20.83;11.18;;;2.80;99.90;;;;;;6144475;23;20073;-88
2022/12/09 11:55:11;;;;;;;19.88;10.93;;;3.30;99.90;;;;;;6143042;23;20484;-88
2022/12/09 11:57:55;;;;;;;22.90;11.02;;;3.20;99.90;;;;;;6124394;23;20032;-88
2022/12/09 12:00:27;;;;;;;23.23;12.23;;;3.10;99.90;;;;;;6124581;23;20096;-87
2022/12/09 12:03:13;;;;;;;22.80;10.93;;;5.30;99.90;;;;;;6122171;23;20429;-88
2022/12/09 12:05:42;;;;;;;20.55;11.55;;;2.40;99.90;;;;;;6123645;23;20421;-87
2022/12/09 12:08:29;;;;;;;22.35;12.38;;;3.40;99.90;;;;;;6122315;23;20049;-87
2022/12/09 12:11:00;;;;;;;22.42;12.15;;;2.90;99.90;;;;;;6123315;23;20047;-90
2022/12/09 12:13:40;;;;;;;23.60;12.43;;;3.00;99.90;;;;;;6123070;23;20021;-89
2022/12/09 12:16:11;;;;;;;24.40;12.13;;;2.80;99.90;;;;;;6123049;23;20091;-87
2022/12/09 12:18:50;;;;;;;23.20;12.45;;;1.50;99.90;;;;;;6123747;23;20043;-88
2022/12/09 12:21:37;;;;;;;;;;;2.80;99.90;;;;;;6124638;23;20048;-89
2022/12/09 12:24:19;;;;;;;23.35;11.50;;;2.80;99.90;;;;;;6122272;23;20233;-88
2022/12/09 12:27:21;;;;;;;21.25;11.40;;;3.10;99.90;;;;;;6123796;23;20025;-89
2022/12/09 12:29:52;;;;;;;18.55;10.02;;;2.90;99.90;;;;;;6123029;23;20100;-92
2022/12/09 12:32:37;;;;;;;22.92;11.13;;;1.00;99.90;;;;;;6123828;23;20081;-89
2022/12/09 12:35:47;;;;;;;23.00;11.68;;;3.00;99.90;;;;;;6122633;23;20445;-87
2022/12/09 12:38:21;;;;;;;20.73;11.02;;;2.80;99.90;;;;;;6123168;23;20025;-88
2022/12/09 12:41:13;;;;;;;20.88;11.77;;;2.70;99.90;;;;;;6124260;23;20029;-88
2022/12/09 12:47:14;;;;;;;19.02;9.95;;;3.00;99.90;;;;;;6088153;23;20052;-89
2022/12/09 12:50:01;;;;;;;19.80;10.07;;;3.20;99.90;;;;;;6141739;23;20039;-88
2022/12/09 12:52:53;;;;;;;23.52;11.63;;;3.00;99.90;;;;;;6129341;23;20104;-84
2022/12/09 12:55:53;;;;;;;21.10;10.82;;;3.10;99.90;;;;;;6129344;23;20024;-88
2022/12/09 12:58:30;;;;;;;22.73;11.32;;;2.70;99.90;;;;;;6153182;23;20021;-88
2022/12/09 13:01:28;;;;;;;22.10;11.02;;;2.70;99.90;;;;;;6154444;23;20040;-88
2022/12/09 13:04:28;;;;;;;24.38;11.23;;;2.30;99.90;;;;;;6109867;23;20024;-88
2022/12/09 13:07:11;;;;;;;19.83;9.55;;;2.70;99.90;;;;;;6128471;23;20075;-90
2022/12/09 13:10:11;;;;;;;21.52;11.00;;;2.70;99.90;;;;;;6154033;23;20496;-88
2022/12/09 13:12:55;;;;;;;22.92;11.05;;;2.60;99.90;;;;;;6081567;23;20053;-90
2022/12/09 13:15:24;;;;;;;23.05;11.52;;;4.30;99.90;;;;;;6130176;23;20042;-89
2022/12/09 13:18:01;;;;;;;;;;;;;;;;;;;;;
2022/12/09 13:20:37;;;;;;;24.42;12.95;;;2.90;99.90;;;;;;6131905;23;20020;-87
2022/12/09 13:23:46;;;;;;;23.17;12.07;;;2.60;99.90;;;;;;6129147;23;20032;-89
2022/12/09 13:26:24;;;;;;;24.80;11.63;;;2.60;99.90;;;;;;6092856;23;20017;-88
2022/12/09 13:29:35;;;;;;;27.63;12.15;;;4.20;99.90;;;;;;6158149;23;20445;-88
2022/12/09 13:32:28;;;;;;;21.85;11.82;;;3.40;99.90;;;;;;6111903;23;20025;-87
2022/12/09 13:35:15;;;;;;;27.77;13.35;;;2.50;99.90;;;;;;6158431;23;20020;-87
2022/12/09 13:37:41;;;;;;;27.58;12.70;;;2.50;99.90;;;;;;6157333;23;20017;-87
2022/12/09 13:40:31;;;;;;;26.75;12.82;;;2.60;99.90;;;;;;6159560;23;20023;-88
2022/12/09 13:43:03;;;;;;;21.85;11.63;;;2.40;99.90;;;;;;6138098;23;20017;-88
2022/12/09 13:45:58;;;;;;;24.65;12.18;;;4.70;99.90;;;;;;6171055;23;20021;-87